sensor_id;sensor_type;location;lat;lon;timestamp;pressure;altitude;pressure_sealevel;temperature;humidity
51849;BME280;38952;51.090;-1.832;2022-08-26T00:01:32;100768.00;;;13.07;81.40
51849;BME280;38952;51.090;-1.832;2022-08-26T00:03:57;100764.16;;;13.03;81.14
51849;BME280;38952;51.090;-1.832;2022-08-26T00:06:23;100768.00;;;13.07;81.58
51849;BME280;38952;51.090;-1.832;2022-08-26T00:08:49;100770.47;;;13.03;81.20
51849;BME280;38952;51.090;-1.832;2022-08-26T00:11:14;100766.91;;;12.98;81.47
51849;BME280;38952;51.090;-1.832;2022-08-26T00:13:40;100772.13;;;12.94;80.93
51849;BME280;38952;51.090;-1.832;2022-08-26T00:16:06;100779.78;;;12.92;80.99
51849;BME280;38952;51.090;-1.832;2022-08-26T00:18:32;100779.25;;;12.90;81.57
51849;BME280;38952;51.090;-1.832;2022-08-26T00:20:58;100780.34;;;12.89;81.21
51849;BME280;38952;51.090;-1.832;2022-08-26T00:23:24;100786.09;;;12.87;81.66
51849;BME280;38952;51.090;-1.832;2022-08-26T00:25:50;100786.38;;;12.86;81.27
51849;BME280;38952;51.090;-1.832;2022-08-26T00:28:15;100779.78;;;12.82;81.70
51849;BME280;38952;51.090;-1.832;2022-08-26T00:30:41;100782.53;;;12.82;80.98
51849;BME280;38952;51.090;-1.832;2022-08-26T00:33:07;100783.09;;;12.84;81.57
51849;BME280;38952;51.090;-1.832;2022-08-26T00:35:33;100783.09;;;12.84;80.88
51849;BME280;38952;51.090;-1.832;2022-08-26T00:37:59;100771.00;;;12.80;80.87
51849;BME280;38952;51.090;-1.832;2022-08-26T00:40:32;100777.31;;;12.80;80.89
51849;BME280;38952;51.090;-1.832;2022-08-26T00:42:59;100783.09;;;12.89;81.33
51849;BME280;38952;51.090;-1.832;2022-08-26T00:45:26;100787.47;;;12.90;80.79
51849;BME280;38952;51.090;-1.832;2022-08-26T00:47:55;100778.97;;;12.81;81.12
51849;BME280;38952;51.090;-1.832;2022-08-26T00:50:27;100785.81;;;12.79;81.05
51849;BME280;38952;51.090;-1.832;2022-08-26T00:52:54;100778.94;;;12.71;81.45
51849;BME280;38952;51.090;-1.832;2022-08-26T00:57:59;100782.50;;;12.56;81.53
51849;BME280;38952;51.090;-1.832;2022-08-26T01:00:28;100787.41;;;12.54;81.93
51849;BME280;38952;51.090;-1.832;2022-08-26T01:02:55;100783.81;;;12.48;81.33
51849;BME280;38952;51.090;-1.832;2022-08-26T01:05:22;100776.97;;;12.46;81.91
51849;BME280;38952;51.090;-1.832;2022-08-26T01:07:48;100786.84;;;12.47;81.73
51849;BME280;38952;51.090;-1.832;2022-08-26T01:10:25;100788.19;;;12.39;81.59
51849;BME280;38952;51.090;-1.832;2022-08-26T01:12:55;100786.25;;;12.34;81.73
51849;BME280;38952;51.090;-1.832;2022-08-26T01:15:26;100783.50;;;12.29;82.27
51849;BME280;38952;51.090;-1.832;2022-08-26T01:17:55;100783.47;;;12.24;82.62
51849;BME280;38952;51.090;-1.832;2022-08-26T01:20:44;100785.09;;;12.20;82.08
51849;BME280;38952;51.090;-1.832;2022-08-26T01:23:11;100789.47;;;12.16;83.00
51849;BME280;38952;51.090;-1.832;2022-08-26T01:25:41;100786.72;;;12.11;82.26
51849;BME280;38952;51.090;-1.832;2022-08-26T01:28:12;100784.22;;;12.04;82.93
51849;BME280;38952;51.090;-1.832;2022-08-26T01:30:40;100781.75;;;12.02;82.58
51849;BME280;38952;51.090;-1.832;2022-08-26T01:33:13;100787.50;;;12.01;82.80
51849;BME280;38952;51.090;-1.832;2022-08-26T01:35:40;100783.38;;;11.98;82.80
51849;BME280;38952;51.090;-1.832;2022-08-26T01:38:07;100778.91;;;11.92;83.01
51849;BME280;38952;51.090;-1.832;2022-08-26T01:40:36;100784.13;;;11.88;83.42
51849;BME280;38952;51.090;-1.832;2022-08-26T01:43:05;100783.28;;;11.88;82.92
51849;BME280;38952;51.090;-1.832;2022-08-26T01:45:33;100784.94;;;11.89;83.16
51849;BME280;38952;51.090;-1.832;2022-08-26T01:48:02;100781.63;;;11.87;83.22
51849;BME280;38952;51.090;-1.832;2022-08-26T01:50:33;100776.13;;;11.87;83.74
51849;BME280;38952;51.090;-1.832;2022-08-26T01:53:03;100781.63;;;11.87;83.38
51849;BME280;38952;51.090;-1.832;2022-08-26T01:55:30;100778.88;;;11.87;83.66
51849;BME280;38952;51.090;-1.832;2022-08-26T01:57:58;100778.66;;;11.88;83.32
51849;BME280;38952;51.090;-1.832;2022-08-26T02:00:24;100778.91;;;11.92;83.55
51849;BME280;38952;51.090;-1.832;2022-08-26T02:02:53;100782.28;;;11.99;83.80
51849;BME280;38952;51.090;-1.832;2022-08-26T02:05:45;100777.34;;;12.01;83.30
51849;BME280;38952;51.090;-1.832;2022-08-26T02:08:12;100783.69;;;12.07;83.58
51849;BME280;38952;51.090;-1.832;2022-08-26T02:10:38;100779.28;;;12.06;83.79
51849;BME280;38952;51.090;-1.832;2022-08-26T02:13:06;100785.34;;;12.08;83.45
51849;BME280;38952;51.090;-1.832;2022-08-26T02:15:32;100783.94;;;12.05;83.15
51849;BME280;38952;51.090;-1.832;2022-08-26T02:17:58;100782.81;;;12.01;83.35
51849;BME280;38952;51.090;-1.832;2022-08-26T02:20:24;100784.47;;;12.02;83.67
51849;BME280;38952;51.090;-1.832;2022-08-26T02:22:50;100793.78;;;12.01;83.92
51849;BME280;38952;51.090;-1.832;2022-08-26T02:25:23;100783.94;;;12.00;83.63
51849;BME280;38952;51.090;-1.832;2022-08-26T02:27:51;100792.72;;;12.02;83.84
51849;BME280;38952;51.090;-1.832;2022-08-26T02:30:20;100789.41;;;12.00;84.03
51849;BME280;38952;51.090;-1.832;2022-08-26T02:32:46;100793.25;;;11.99;83.72
51849;BME280;38952;51.090;-1.832;2022-08-26T02:35:13;100785.03;;;11.99;83.76
51849;BME280;38952;51.090;-1.832;2022-08-26T02:37:40;100790.22;;;12.01;83.30
51849;BME280;38952;51.090;-1.832;2022-08-26T02:40:07;100787.22;;;11.97;83.08
51849;BME280;38952;51.090;-1.832;2022-08-26T02:42:34;100792.38;;;11.94;83.69
51849;BME280;38952;51.090;-1.832;2022-08-26T02:44:59;100783.84;;;11.90;83.99
51849;BME280;38952;51.090;-1.832;2022-08-26T02:47:25;100788.75;;;11.83;83.79
51849;BME280;38952;51.090;-1.832;2022-08-26T02:49:52;100796.38;;;11.81;84.10
51849;BME280;38952;51.090;-1.832;2022-08-26T02:52:19;100790.91;;;11.76;83.96
51849;BME280;38952;51.090;-1.832;2022-08-26T02:54:44;100791.44;;;11.73;83.72
51849;BME280;38952;51.090;-1.832;2022-08-26T02:57:10;100799.91;;;11.71;83.57
51849;BME280;38952;51.090;-1.832;2022-08-26T02:59:36;100793.56;;;11.65;84.00
51849;BME280;38952;51.090;-1.832;2022-08-26T03:02:04;100801.22;;;11.63;83.87
51849;BME280;38952;51.090;-1.832;2022-08-26T03:04:30;100801.19;;;11.58;84.31
51849;BME280;38952;51.090;-1.832;2022-08-26T03:06:56;100801.19;;;11.58;84.09
51849;BME280;38952;51.090;-1.832;2022-08-26T03:09:23;100796.53;;;11.59;84.17
51849;BME280;38952;51.090;-1.832;2022-08-26T03:11:48;100799.53;;;11.57;83.97
51849;BME280;38952;51.090;-1.832;2022-08-26T03:14:14;100802.00;;;11.59;83.87
51849;BME280;38952;51.090;-1.832;2022-08-26T03:16:39;100795.41;;;11.55;84.36
51849;BME280;38952;51.090;-1.832;2022-08-26T03:19:06;100798.41;;;11.53;84.10
51849;BME280;38952;51.090;-1.832;2022-08-26T03:21:33;100783.91;;;11.52;84.17
51849;BME280;38952;51.090;-1.832;2022-08-26T03:23:59;100779.78;;;11.50;83.83
51849;BME280;38952;51.090;-1.832;2022-08-26T03:26:25;100785.78;;;11.52;84.36
51849;BME280;38952;51.090;-1.832;2022-08-26T03:28:51;100784.16;;;11.51;83.90
51849;BME280;38952;51.090;-1.832;2022-08-26T03:31:35;100782.22;;;11.46;84.58
51849;BME280;38952;51.090;-1.832;2022-08-26T03:34:00;100775.34;;;11.44;84.60
51849;BME280;38952;51.090;-1.832;2022-08-26T03:36:27;100775.91;;;11.46;84.23
51849;BME280;38952;51.090;-1.832;2022-08-26T03:38:53;100775.34;;;11.44;84.41
51849;BME280;38952;51.090;-1.832;2022-08-26T03:41:18;100783.56;;;11.44;84.78
51849;BME280;38952;51.090;-1.832;2022-08-26T03:43:45;100776.41;;;11.38;84.69
51849;BME280;38952;51.090;-1.832;2022-08-26T03:46:13;100772.00;;;11.37;84.76
51849;BME280;38952;51.090;-1.832;2022-08-26T03:48:39;100776.34;;;11.32;84.26
51849;BME280;38952;51.090;-1.832;2022-08-26T03:51:11;100776.03;;;11.24;84.30
51849;BME280;38952;51.090;-1.832;2022-08-26T03:53:36;100775.16;;;11.18;84.99
51849;BME280;38952;51.090;-1.832;2022-08-26T03:56:02;100772.31;;;11.08;85.25
51849;BME280;38952;51.090;-1.832;2022-08-26T03:58:27;100773.94;;;11.04;85.22
51849;BME280;38952;51.090;-1.832;2022-08-26T04:00:53;100769.25;;;10.99;85.54
51849;BME280;38952;51.090;-1.832;2022-08-26T04:03:18;100764.50;;;10.89;85.39
51849;BME280;38952;51.090;-1.832;2022-08-26T04:06:04;100767.75;;;10.86;85.34
51849;BME280;38952;51.090;-1.832;2022-08-26T04:08:30;100768.28;;;10.83;86.21
51849;BME280;38952;51.090;-1.832;2022-08-26T04:10:55;100761.63;;;10.74;85.97
51849;BME280;38952;51.090;-1.832;2022-08-26T04:13:21;100778.59;;;10.76;86.29
51849;BME280;38952;51.090;-1.832;2022-08-26T04:15:46;100780.47;;;10.70;86.78
51849;BME280;38952;51.090;-1.832;2022-08-26T04:18:11;100780.16;;;10.67;86.42
51849;BME280;38952;51.090;-1.832;2022-08-26T04:20:37;100781.19;;;10.60;86.95
51849;BME280;38952;51.090;-1.832;2022-08-26T04:23:03;100783.31;;;10.53;86.59
51849;BME280;38952;51.090;-1.832;2022-08-26T04:25:28;100783.81;;;10.50;87.17
51849;BME280;38952;51.090;-1.832;2022-08-26T04:27:54;100779.44;;;10.49;86.98
51849;BME280;38952;51.090;-1.832;2022-08-26T04:30:19;100783.25;;;10.48;87.12
51849;BME280;38952;51.090;-1.832;2022-08-26T04:32:46;100784.59;;;10.45;87.63
51849;BME280;38952;51.090;-1.832;2022-08-26T04:35:11;100789.56;;;10.48;87.52
51849;BME280;38952;51.090;-1.832;2022-08-26T04:37:36;100779.94;;;10.46;87.62
51849;BME280;38952;51.090;-1.832;2022-08-26T04:40:03;100782.44;;;10.47;87.64
51849;BME280;38952;51.090;-1.832;2022-08-26T04:42:28;100779.94;;;10.46;87.55
51849;BME280;38952;51.090;-1.832;2022-08-26T04:44:54;100793.63;;;10.46;87.54
51849;BME280;38952;51.090;-1.832;2022-08-26T04:47:19;100783.75;;;10.45;87.58
51849;BME280;38952;51.090;-1.832;2022-08-26T04:49:45;100787.06;;;10.47;87.82
51849;BME280;38952;51.090;-1.832;2022-08-26T04:52:10;100788.72;;;10.48;87.63
51849;BME280;38952;51.090;-1.832;2022-08-26T04:54:36;100785.72;;;10.50;87.89
51849;BME280;38952;51.090;-1.832;2022-08-26T04:57:01;100783.25;;;10.48;87.78
51849;BME280;38952;51.090;-1.832;2022-08-26T04:59:27;100780.25;;;10.50;88.11
51849;BME280;38952;51.090;-1.832;2022-08-26T05:01:53;100782.72;;;10.51;88.24
51849;BME280;38952;51.090;-1.832;2022-08-26T05:04:24;100792.06;;;10.55;88.11
51849;BME280;38952;51.090;-1.832;2022-08-26T05:06:49;100791.00;;;10.56;88.19
51849;BME280;38952;51.090;-1.832;2022-08-26T05:09:16;100792.66;;;10.57;88.25
51849;BME280;38952;51.090;-1.832;2022-08-26T05:11:42;100787.72;;;10.54;88.17
51849;BME280;38952;51.090;-1.832;2022-08-26T05:14:10;100793.47;;;10.58;88.14
51849;BME280;38952;51.090;-1.832;2022-08-26T05:16:36;100783.88;;;10.55;88.23
51849;BME280;38952;51.090;-1.832;2022-08-26T05:19:02;100782.22;;;10.54;88.03
51849;BME280;38952;51.090;-1.832;2022-08-26T05:21:28;100794.03;;;10.60;87.74
51849;BME280;38952;51.090;-1.832;2022-08-26T05:23:54;100792.19;;;10.65;88.26
51849;BME280;38952;51.090;-1.832;2022-08-26T05:26:22;100793.56;;;10.68;87.50
51849;BME280;38952;51.090;-1.832;2022-08-26T05:28:48;100781.94;;;10.78;88.07
51849;BME280;38952;51.090;-1.832;2022-08-26T05:31:17;100787.44;;;10.83;88.05
51849;BME280;38952;51.090;-1.832;2022-08-26T05:33:43;100788.88;;;10.91;87.50
51849;BME280;38952;51.090;-1.832;2022-08-26T05:36:10;100793.56;;;10.95;86.98
51849;BME280;38952;51.090;-1.832;2022-08-26T05:38:37;100788.41;;;10.99;86.90
51849;BME280;38952;51.090;-1.832;2022-08-26T05:41:03;100797.47;;;11.05;87.05
51849;BME280;38952;51.090;-1.832;2022-08-26T05:43:28;100786.00;;;11.08;87.20
51849;BME280;38952;51.090;-1.832;2022-08-26T05:45:54;100795.34;;;11.12;86.86
51849;BME280;38952;51.090;-1.832;2022-08-26T05:48:21;100785.03;;;11.19;87.05
51849;BME280;38952;51.090;-1.832;2022-08-26T05:50:49;100790.56;;;11.29;86.39
51849;BME280;38952;51.090;-1.832;2022-08-26T05:53:18;100793.09;;;11.36;86.62
51849;BME280;38952;51.090;-1.832;2022-08-26T05:55:50;100785.22;;;11.45;86.09
51849;BME280;38952;51.090;-1.832;2022-08-26T05:58:17;100777.56;;;11.47;86.55
51849;BME280;38952;51.090;-1.832;2022-08-26T06:00:55;100785.84;;;11.57;85.94
51849;BME280;38952;51.090;-1.832;2022-08-26T06:03:21;100790.84;;;11.65;85.68
51849;BME280;38952;51.090;-1.832;2022-08-26T06:05:46;100799.66;;;11.78;85.90
51849;BME280;38952;51.090;-1.832;2022-08-26T06:08:12;100798.59;;;11.84;85.75
51849;BME280;38952;51.090;-1.832;2022-08-26T06:10:49;100787.09;;;11.87;84.89
51849;BME280;38952;51.090;-1.832;2022-08-26T06:13:15;100781.94;;;11.91;85.37
51849;BME280;38952;51.090;-1.832;2022-08-26T06:15:44;100789.38;;;11.95;85.10
51849;BME280;38952;51.090;-1.832;2022-08-26T06:18:12;100784.47;;;12.02;84.69
51849;BME280;38952;51.090;-1.832;2022-08-26T06:20:39;100793.28;;;12.15;84.58
51849;BME280;38952;51.090;-1.832;2022-08-26T06:23:09;100795.53;;;12.23;84.46
51849;BME280;38952;51.090;-1.832;2022-08-26T06:25:54;100780.22;;;12.37;83.75
51849;BME280;38952;51.090;-1.832;2022-08-26T06:28:19;100793.16;;;12.47;83.49
51849;BME280;38952;51.090;-1.832;2022-08-26T06:30:44;100791.81;;;12.55;83.73
51849;BME280;38952;51.090;-1.832;2022-08-26T06:33:10;100791.84;;;12.65;83.40
51849;BME280;38952;51.090;-1.832;2022-08-26T06:35:37;100790.19;;;12.74;82.89
51849;BME280;38952;51.090;-1.832;2022-08-26T06:38:04;100795.19;;;12.88;82.24
51849;BME280;38952;51.090;-1.832;2022-08-26T06:40:30;100789.69;;;12.93;82.45
51849;BME280;38952;51.090;-1.832;2022-08-26T06:42:56;100803.97;;;13.10;82.22
51849;BME280;38952;51.090;-1.832;2022-08-26T06:45:21;100795.19;;;13.19;81.54
51849;BME280;38952;51.090;-1.832;2022-08-26T06:47:47;100797.66;;;13.31;81.50
51849;BME280;38952;51.090;-1.832;2022-08-26T06:50:12;100800.72;;;13.39;80.90
51849;BME280;38952;51.090;-1.832;2022-08-26T06:52:40;100791.91;;;13.48;80.13
51849;BME280;38952;51.090;-1.832;2022-08-26T06:55:07;100792.16;;;13.56;79.79
51849;BME280;38952;51.090;-1.832;2022-08-26T06:57:32;100791.59;;;13.65;79.51
51849;BME280;38952;51.090;-1.832;2022-08-26T06:59:58;100790.22;;;13.67;79.15
51849;BME280;38952;51.090;-1.832;2022-08-26T07:02:24;100803.66;;;13.84;78.82
51849;BME280;38952;51.090;-1.832;2022-08-26T07:04:49;100799.25;;;13.93;78.38
51849;BME280;38952;51.090;-1.832;2022-08-26T07:07:14;100798.94;;;14.00;78.22
51849;BME280;38952;51.090;-1.832;2022-08-26T07:09:40;100804.97;;;14.07;77.16
51849;BME280;38952;51.090;-1.832;2022-08-26T07:12:05;100798.34;;;14.13;77.38
51849;BME280;38952;51.090;-1.832;2022-08-26T07:14:33;100803.81;;;14.24;77.54
51849;BME280;38952;51.090;-1.832;2022-08-26T07:16:58;100805.09;;;14.42;77.24
51849;BME280;38952;51.090;-1.832;2022-08-26T07:19:25;100794.28;;;14.56;76.64
51849;BME280;38952;51.090;-1.832;2022-08-26T07:21:50;100801.91;;;14.74;76.17
51849;BME280;38952;51.090;-1.832;2022-08-26T07:24:16;100808.50;;;14.83;75.75
51849;BME280;38952;51.090;-1.832;2022-08-26T07:26:41;100807.88;;;14.92;74.97
51849;BME280;38952;51.090;-1.832;2022-08-26T07:29:06;100810.03;;;15.00;74.78
51849;BME280;38952;51.090;-1.832;2022-08-26T07:31:32;100812.66;;;15.15;74.77
51849;BME280;38952;51.090;-1.832;2022-08-26T07:34:01;100801.53;;;15.26;74.64
51849;BME280;38952;51.090;-1.832;2022-08-26T07:36:29;100795.47;;;15.29;73.99
51849;BME280;38952;51.090;-1.832;2022-08-26T07:39:02;100796.09;;;15.50;73.74
51849;BME280;38952;51.090;-1.832;2022-08-26T07:41:49;100786.63;;;15.61;73.34
51849;BME280;38952;51.090;-1.832;2022-08-26T07:44:15;100802.72;;;15.78;72.89
51849;BME280;38952;51.090;-1.832;2022-08-26T07:46:41;100805.19;;;15.80;72.11
51849;BME280;38952;51.090;-1.832;2022-08-26T07:49:07;100794.91;;;15.91;72.35
51849;BME280;38952;51.090;-1.832;2022-08-26T07:51:33;100798.31;;;16.07;72.20
51849;BME280;38952;51.090;-1.832;2022-08-26T07:53:58;100805.13;;;16.33;71.59
51849;BME280;38952;51.090;-1.832;2022-08-26T07:56:24;100802.34;;;16.57;71.14
51849;BME280;38952;51.090;-1.832;2022-08-26T07:58:51;100801.66;;;16.85;71.32
51849;BME280;38952;51.090;-1.832;2022-08-26T08:01:18;100809.81;;;17.14;70.82
51849;BME280;38952;51.090;-1.832;2022-08-26T08:03:44;100810.75;;;17.42;68.66
51849;BME280;38952;51.090;-1.832;2022-08-26T08:06:09;100808.88;;;17.38;68.65
51849;BME280;38952;51.090;-1.832;2022-08-26T08:08:35;100813.13;;;17.63;68.65
51849;BME280;38952;51.090;-1.832;2022-08-26T08:11:01;100812.03;;;17.78;67.33
51849;BME280;38952;51.090;-1.832;2022-08-26T08:13:27;100807.72;;;17.86;67.75
51849;BME280;38952;51.090;-1.832;2022-08-26T08:15:53;100813.91;;;18.10;67.07
51849;BME280;38952;51.090;-1.832;2022-08-26T08:18:19;100820.09;;;18.21;66.22
51849;BME280;38952;51.090;-1.832;2022-08-26T08:20:45;100820.06;;;18.35;65.36
51849;BME280;38952;51.090;-1.832;2022-08-26T08:23:10;100812.28;;;18.37;64.23
51849;BME280;38952;51.090;-1.832;2022-08-26T08:25:36;100815.47;;;18.30;64.13
51849;BME280;38952;51.090;-1.832;2022-08-26T08:28:01;100812.47;;;18.41;64.46
51849;BME280;38952;51.090;-1.832;2022-08-26T08:30:27;100812.63;;;18.86;63.71
51849;BME280;38952;51.090;-1.832;2022-08-26T08:32:53;100820.41;;;19.75;61.01
51849;BME280;38952;51.090;-1.832;2022-08-26T08:35:21;100811.94;;;20.78;57.46
51849;BME280;38952;51.090;-1.832;2022-08-26T08:37:48;100821.44;;;21.29;53.70
51849;BME280;38952;51.090;-1.832;2022-08-26T08:40:19;100818.41;;;21.69;51.51
51849;BME280;38952;51.090;-1.832;2022-08-26T08:50:45;100833.28;;;24.14;43.81
51849;BME280;38952;51.090;-1.832;2022-08-26T08:53:27;100836.66;;;24.45;41.60
51849;BME280;38952;51.090;-1.832;2022-08-26T08:56:31;100836.63;;;25.22;42.23
51849;BME280;38952;51.090;-1.832;2022-08-26T08:59:18;100843.03;;;26.11;41.81
51849;BME280;38952;51.090;-1.832;2022-08-26T09:01:53;100840.16;;;26.59;40.70
51849;BME280;38952;51.090;-1.832;2022-08-26T09:04:45;100846.25;;;27.16;39.31
51849;BME280;38952;51.090;-1.832;2022-08-26T09:07:26;100846.72;;;27.38;37.51
51849;BME280;38952;51.090;-1.832;2022-08-26T09:10:04;100836.50;;;27.96;36.35
51849;BME280;38952;51.090;-1.832;2022-08-26T09:12:36;100834.25;;;28.55;35.64
51849;BME280;38952;51.090;-1.832;2022-08-26T09:21:13;100835.38;;;30.24;34.04
51849;BME280;38952;51.090;-1.832;2022-08-26T09:23:42;100845.22;;;30.44;32.28
51849;BME280;38952;51.090;-1.832;2022-08-26T09:26:18;100838.75;;;30.40;30.93
51849;BME280;38952;51.090;-1.832;2022-08-26T09:29:00;100825.66;;;30.73;31.69
51849;BME280;38952;51.090;-1.832;2022-08-26T09:31:45;100830.31;;;31.14;31.44
51849;BME280;38952;51.090;-1.832;2022-08-26T09:34:31;100836.09;;;31.79;31.07
51849;BME280;38952;51.090;-1.832;2022-08-26T09:37:08;100841.78;;;32.08;30.61
51849;BME280;38952;51.090;-1.832;2022-08-26T09:39:40;100805.84;;;32.23;30.15
51849;BME280;38952;51.090;-1.832;2022-08-26T09:42:09;100790.06;;;31.96;29.11
51849;BME280;38952;51.090;-1.832;2022-08-26T09:45:00;100832.09;;;31.69;28.45
51849;BME280;38952;51.090;-1.832;2022-08-26T09:53:16;100813.13;;;29.67;29.88
51849;BME280;38952;51.090;-1.832;2022-08-26T09:55:45;100806.81;;;28.75;30.16
51849;BME280;38952;51.090;-1.832;2022-08-26T10:00:56;100804.28;;;28.39;31.74
51849;BME280;38952;51.090;-1.832;2022-08-26T10:03:41;100795.25;;;28.27;32.41
51849;BME280;38952;51.090;-1.832;2022-08-26T10:08:44;100802.53;;;27.35;32.48
51849;BME280;38952;51.090;-1.832;2022-08-26T10:11:21;100795.13;;;27.27;34.21
51849;BME280;38952;51.090;-1.832;2022-08-26T10:13:53;100804.38;;;27.08;34.00
51849;BME280;38952;51.090;-1.832;2022-08-26T10:16:25;100799.03;;;26.83;33.88
51849;BME280;38952;51.090;-1.832;2022-08-26T10:18:57;100794.41;;;26.55;34.62
51849;BME280;38952;51.090;-1.832;2022-08-26T10:21:28;100794.06;;;26.76;35.50
51849;BME280;38952;51.090;-1.832;2022-08-26T10:23:58;100802.53;;;26.60;34.78
51849;BME280;38952;51.090;-1.832;2022-08-26T10:27:01;100798.22;;;26.47;34.96
51849;BME280;38952;51.090;-1.832;2022-08-26T10:29:43;100797.13;;;26.00;35.85
51849;BME280;38952;51.090;-1.832;2022-08-26T10:34:53;100785.16;;;26.19;37.75
51849;BME280;38952;51.090;-1.832;2022-08-26T10:37:20;100797.56;;;26.70;37.59
51849;BME280;38952;51.090;-1.832;2022-08-26T10:39:56;100792.25;;;27.04;37.28
51849;BME280;38952;51.090;-1.832;2022-08-26T10:42:40;100791.56;;;27.30;37.47
51849;BME280;38952;51.090;-1.832;2022-08-26T10:58:53;100784.31;;;27.48;30.90
51849;BME280;38952;51.090;-1.832;2022-08-26T11:01:42;100773.03;;;28.18;31.92
51849;BME280;38952;51.090;-1.832;2022-08-26T11:04:37;100776.66;;;29.40;30.34
51849;BME280;38952;51.090;-1.832;2022-08-26T11:07:33;100768.47;;;30.21;28.76
51849;BME280;38952;51.090;-1.832;2022-08-26T11:22:51;100776.09;;;39.34;17.81
51849;BME280;38952;51.090;-1.832;2022-08-26T11:25:24;100780.22;;;41.39;16.36
51849;BME280;38952;51.090;-1.832;2022-08-26T11:27:54;100775.53;;;42.84;13.90
51849;BME280;38952;51.090;-1.832;2022-08-26T11:32:53;100760.63;;;45.24;12.90
51849;BME280;38952;51.090;-1.832;2022-08-26T11:40:25;100761.97;;;46.06;12.40
51849;BME280;38952;51.090;-1.832;2022-08-26T11:42:56;100752.88;;;47.29;12.77
51849;BME280;38952;51.090;-1.832;2022-08-26T11:45:40;100744.69;;;48.99;11.59
51849;BME280;38952;51.090;-1.832;2022-08-26T11:48:37;100748.97;;;49.79;10.36
51849;BME280;38952;51.090;-1.832;2022-08-26T11:51:08;100748.69;;;50.36;10.77
51849;BME280;38952;51.090;-1.832;2022-08-26T11:53:42;100739.59;;;50.81;10.20
51849;BME280;38952;51.090;-1.832;2022-08-26T11:56:13;100746.63;;;51.47;8.28
51849;BME280;38952;51.090;-1.832;2022-08-26T11:58:42;100721.69;;;50.41;9.02
51849;BME280;38952;51.090;-1.832;2022-08-26T12:01:09;100733.47;;;50.55;8.76
51849;BME280;38952;51.090;-1.832;2022-08-26T12:03:40;100736.91;;;50.84;7.71
51849;BME280;38952;51.090;-1.832;2022-08-26T12:06:36;100727.59;;;50.30;7.78
51849;BME280;38952;51.090;-1.832;2022-08-26T12:09:09;100723.09;;;50.65;8.09
51849;BME280;38952;51.090;-1.832;2022-08-26T12:11:36;100730.81;;;51.42;8.15
51849;BME280;38952;51.090;-1.832;2022-08-26T12:14:17;100721.31;;;52.96;7.45
51849;BME280;38952;51.090;-1.832;2022-08-26T12:16:43;100717.19;;;53.05;7.30
51849;BME280;38952;51.090;-1.832;2022-08-26T12:19:31;100709.75;;;53.58;6.36
51849;BME280;38952;51.090;-1.832;2022-08-26T12:24:34;100711.16;;;54.68;7.55
51849;BME280;38952;51.090;-1.832;2022-08-26T12:27:17;100717.25;;;56.78;5.95
51849;BME280;38952;51.090;-1.832;2022-08-26T12:32:30;100706.78;;;59.23;5.18
51849;BME280;38952;51.090;-1.832;2022-08-26T12:34:56;100697.28;;;59.60;4.18
51849;BME280;38952;51.090;-1.832;2022-08-26T12:37:22;100680.94;;;57.78;4.92
51849;BME280;38952;51.090;-1.832;2022-08-26T12:39:48;100680.50;;;56.30;5.16
51849;BME280;38952;51.090;-1.832;2022-08-26T12:44:59;100656.16;;;49.99;8.21
51849;BME280;38952;51.090;-1.832;2022-08-26T12:47:29;100649.56;;;49.98;8.02
51849;BME280;38952;51.090;-1.832;2022-08-26T12:55:34;100641.38;;;50.88;8.22
51849;BME280;38952;51.090;-1.832;2022-08-26T13:00:41;100640.47;;;50.13;7.91
51849;BME280;38952;51.090;-1.832;2022-08-26T13:06:30;100621.00;;;48.05;8.83
51849;BME280;38952;51.090;-1.832;2022-08-26T13:14:16;100624.78;;;42.76;11.85
51849;BME280;38952;51.090;-1.832;2022-08-26T13:16:42;100618.22;;;41.12;12.63
51849;BME280;38952;51.090;-1.832;2022-08-26T13:19:15;100617.91;;;39.72;13.63
51849;BME280;38952;51.090;-1.832;2022-08-26T13:21:51;100612.78;;;37.99;15.03
51849;BME280;38952;51.090;-1.832;2022-08-26T13:24:25;100611.97;;;36.71;16.39
51849;BME280;38952;51.090;-1.832;2022-08-26T13:26:53;100602.34;;;36.08;16.88
51849;BME280;38952;51.090;-1.832;2022-08-26T13:29:21;100609.88;;;35.54;17.63
51849;BME280;38952;51.090;-1.832;2022-08-26T13:31:47;100604.72;;;34.71;18.39
51849;BME280;38952;51.090;-1.832;2022-08-26T13:34:15;100611.50;;;34.19;19.00
51849;BME280;38952;51.090;-1.832;2022-08-26T13:36:47;100603.31;;;33.52;19.74
51849;BME280;38952;51.090;-1.832;2022-08-26T13:39:13;100601.28;;;33.03;20.47
51849;BME280;38952;51.090;-1.832;2022-08-26T13:41:39;100599.22;;;32.44;21.42
51849;BME280;38952;51.090;-1.832;2022-08-26T13:44:05;100607.47;;;32.02;21.87
51849;BME280;38952;51.090;-1.832;2022-08-26T13:46:31;100598.19;;;32.02;22.35
51849;BME280;38952;51.090;-1.832;2022-08-26T13:48:57;100592.19;;;31.85;22.25
51849;BME280;38952;51.090;-1.832;2022-08-26T13:51:23;100604.34;;;31.68;22.56
51849;BME280;38952;51.090;-1.832;2022-08-26T13:53:49;100592.66;;;31.26;23.04
51849;BME280;38952;51.090;-1.832;2022-08-26T13:56:15;100591.03;;;30.93;23.25
51849;BME280;38952;51.090;-1.832;2022-08-26T13:58:41;100588.94;;;30.54;23.66
51849;BME280;38952;51.090;-1.832;2022-08-26T14:01:07;100591.25;;;30.23;24.63
51849;BME280;38952;51.090;-1.832;2022-08-26T14:03:33;100595.47;;;29.81;25.50
51849;BME280;38952;51.090;-1.832;2022-08-26T14:05:59;100590.84;;;29.51;26.27
51849;BME280;38952;51.090;-1.832;2022-08-26T14:08:25;100594.25;;;29.22;26.58
51849;BME280;38952;51.090;-1.832;2022-08-26T14:10:50;100588.94;;;29.14;26.46
51849;BME280;38952;51.090;-1.832;2022-08-26T14:13:16;100592.16;;;29.16;26.69
51849;BME280;38952;51.090;-1.832;2022-08-26T14:15:42;100592.25;;;29.23;27.03
51849;BME280;38952;51.090;-1.832;2022-08-26T14:18:09;100601.63;;;28.93;27.66
51849;BME280;38952;51.090;-1.832;2022-08-26T14:20:37;100586.09;;;28.69;27.58